sensor_id;sensor_type;location;lat;lon;timestamp;pressure;altitude;pressure_sealevel;temperature;humidity
18697;BME280;22617;43.690;27.956;2022-12-11T00:04:24;97344.88;;;13.67;90.20
18697;BME280;22617;43.690;27.956;2022-12-11T00:09:29;97341.81;;;13.78;89.38
18697;BME280;22617;43.690;27.956;2022-12-11T00:14:33;97339.88;;;14.02;88.36
18697;BME280;22617;43.690;27.956;2022-12-11T00:19:37;97329.28;;;14.05;87.66
18697;BME280;22617;43.690;27.956;2022-12-11T00:24:42;97332.66;;;14.07;87.37
18697;BME280;22617;43.690;27.956;2022-12-11T00:29:45;97323.84;;;14.09;87.68
18697;BME280;22617;43.690;27.956;2022-12-11T00:34:48;97323.06;;;14.26;86.94
18697;BME280;22617;43.690;27.956;2022-12-11T00:39:53;97324.94;;;14.43;85.93
18697;BME280;22617;43.690;27.956;2022-12-11T00:44:57;97331.59;;;14.50;85.38
18697;BME280;22617;43.690;27.956;2022-12-11T00:50:00;97314.16;;;14.49;85.29
18697;BME280;22617;43.690;27.956;2022-12-11T00:55:06;97316.88;;;14.47;85.24
18697;BME280;22617;43.690;27.956;2022-12-11T01:00:11;97283.84;;;14.62;84.86
18697;BME280;22617;43.690;27.956;2022-12-11T01:05:15;97277.16;;;14.73;84.37
18697;BME280;22617;43.690;27.956;2022-12-11T01:10:20;97270.28;;;14.71;84.37
18697;BME280;22617;43.690;27.956;2022-12-11T01:15:28;97258.28;;;14.84;84.09
18697;BME280;22617;43.690;27.956;2022-12-11T01:20:32;97247.09;;;14.80;84.79
18697;BME280;22617;43.690;27.956;2022-12-11T01:25:37;97243.16;;;14.89;84.25
18697;BME280;22617;43.690;27.956;2022-12-11T01:30:41;97230.22;;;14.86;84.59
18697;BME280;22617;43.690;27.956;2022-12-11T01:35:45;97236.50;;;14.82;84.66
18697;BME280;22617;43.690;27.956;2022-12-11T01:40:50;97228.88;;;14.77;84.66
18697;BME280;22617;43.690;27.956;2022-12-11T01:45:54;97235.69;;;14.81;84.86
18697;BME280;22617;43.690;27.956;2022-12-11T01:50:59;97242.75;;;14.79;85.32
18697;BME280;22617;43.690;27.956;2022-12-11T01:56:05;97225.59;;;14.91;84.86
18697;BME280;22617;43.690;27.956;2022-12-11T02:01:11;97220.75;;;14.65;85.43
18697;BME280;22617;43.690;27.956;2022-12-11T02:06:35;97205.78;;;14.31;87.02
18697;BME280;22617;43.690;27.956;2022-12-11T02:11:46;97194.75;;;14.24;87.84
18697;BME280;22617;43.690;27.956;2022-12-11T02:16:55;97171.31;;;14.21;87.24
18697;BME280;22617;43.690;27.956;2022-12-11T02:22:05;97161.72;;;13.84;88.56
18697;BME280;22617;43.690;27.956;2022-12-11T02:27:21;97154.72;;;13.85;89.37
18697;BME280;22617;43.690;27.956;2022-12-11T02:32:34;97145.38;;;13.79;89.88
18697;BME280;22617;43.690;27.956;2022-12-11T02:37:42;97123.94;;;13.71;90.91
18697;BME280;22617;43.690;27.956;2022-12-11T02:42:47;97104.63;;;13.55;91.73
18697;BME280;22617;43.690;27.956;2022-12-11T02:47:55;97122.16;;;13.53;92.22
18697;BME280;22617;43.690;27.956;2022-12-11T02:53:02;97103.84;;;13.53;92.39
18697;BME280;22617;43.690;27.956;2022-12-11T02:58:12;97106.03;;;13.62;92.42
18697;BME280;22617;43.690;27.956;2022-12-11T03:03:18;97092.44;;;13.54;92.49
18697;BME280;22617;43.690;27.956;2022-12-11T03:08:21;97099.13;;;13.61;92.80
18697;BME280;22617;43.690;27.956;2022-12-11T03:13:25;97107.19;;;13.57;92.91
18697;BME280;22617;43.690;27.956;2022-12-11T03:18:34;97103.78;;;13.54;92.27
18697;BME280;22617;43.690;27.956;2022-12-11T03:23:46;97097.00;;;13.50;92.58
18697;BME280;22617;43.690;27.956;2022-12-11T03:28:56;97084.75;;;13.51;92.35
18697;BME280;22617;43.690;27.956;2022-12-11T03:34:07;97098.69;;;13.51;92.35
18697;BME280;22617;43.690;27.956;2022-12-11T03:39:17;97089.84;;;13.35;92.16
18697;BME280;22617;43.690;27.956;2022-12-11T03:44:23;97090.41;;;13.42;91.81
18697;BME280;22617;43.690;27.956;2022-12-11T03:49:32;97093.38;;;13.53;92.20
18697;BME280;22617;43.690;27.956;2022-12-11T03:54:38;97084.38;;;13.59;91.66
18697;BME280;22617;43.690;27.956;2022-12-11T03:59:42;97061.47;;;13.45;91.58
18697;BME280;22617;43.690;27.956;2022-12-11T04:04:47;97041.63;;;13.41;92.19
18697;BME280;22617;43.690;27.956;2022-12-11T04:09:50;97033.41;;;13.30;92.16
18697;BME280;22617;43.690;27.956;2022-12-11T04:14:55;97033.59;;;13.44;91.83
18697;BME280;22617;43.690;27.956;2022-12-11T04:20:09;97035.47;;;13.42;91.12
18697;BME280;22617;43.690;27.956;2022-12-11T04:25:30;97018.34;;;13.35;91.16
18697;BME280;22617;43.690;27.956;2022-12-11T04:30:33;97004.34;;;13.36;90.88
18697;BME280;22617;43.690;27.956;2022-12-11T04:35:38;97001.69;;;13.19;91.02
18697;BME280;22617;43.690;27.956;2022-12-11T04:40:42;96987.38;;;13.26;91.44
18697;BME280;22617;43.690;27.956;2022-12-11T04:45:45;96973.47;;;13.25;91.78
18697;BME280;22617;43.690;27.956;2022-12-11T04:50:50;96982.63;;;13.34;91.10
18697;BME280;22617;43.690;27.956;2022-12-11T04:55:54;96981.16;;;13.47;90.41
18697;BME280;22617;43.690;27.956;2022-12-11T05:00:57;96975.63;;;13.34;90.55
18697;BME280;22617;43.690;27.956;2022-12-11T05:06:02;96981.09;;;13.30;90.84
18697;BME280;22617;43.690;27.956;2022-12-11T05:11:08;96995.16;;;13.27;91.25
18697;BME280;22617;43.690;27.956;2022-12-11T05:16:14;97005.75;;;13.43;90.99
18697;BME280;22617;43.690;27.956;2022-12-11T05:21:20;96979.88;;;13.73;90.23
18697;BME280;22617;43.690;27.956;2022-12-11T05:26:23;96975.34;;;13.93;88.83
18697;BME280;22617;43.690;27.956;2022-12-11T05:31:27;96981.91;;;13.85;88.38
18697;BME280;22617;43.690;27.956;2022-12-11T05:36:32;96986.50;;;13.97;88.66
18697;BME280;22617;43.690;27.956;2022-12-11T05:41:36;96992.59;;;13.97;88.64
18697;BME280;22617;43.690;27.956;2022-12-11T05:46:39;96999.22;;;14.22;88.46
18697;BME280;22617;43.690;27.956;2022-12-11T05:51:44;97010.03;;;14.50;87.97
18697;BME280;22617;43.690;27.956;2022-12-11T05:56:48;96992.41;;;14.69;86.77
18697;BME280;22617;43.690;27.956;2022-12-11T06:01:52;97007.97;;;14.72;86.16
18697;BME280;22617;43.690;27.956;2022-12-11T06:06:57;97003.19;;;14.80;86.29
18697;BME280;22617;43.690;27.956;2022-12-11T06:12:00;96999.44;;;15.33;85.17
18697;BME280;22617;43.690;27.956;2022-12-11T06:17:04;97028.25;;;15.82;82.96
18697;BME280;22617;43.690;27.956;2022-12-11T06:22:09;97028.91;;;16.01;81.61
18697;BME280;22617;43.690;27.956;2022-12-11T06:27:12;97025.69;;;15.96;81.82
18697;BME280;22617;43.690;27.956;2022-12-11T06:32:15;97034.84;;;15.89;81.92
18697;BME280;22617;43.690;27.956;2022-12-11T06:37:20;97028.75;;;15.88;82.25
18697;BME280;22617;43.690;27.956;2022-12-11T06:42:24;97026.97;;;15.89;82.38
18697;BME280;22617;43.690;27.956;2022-12-11T06:47:27;97034.84;;;15.89;82.73
18697;BME280;22617;43.690;27.956;2022-12-11T06:52:32;97030.03;;;15.97;82.35
18697;BME280;22617;43.690;27.956;2022-12-11T06:57:36;97037.63;;;16.01;82.19
18697;BME280;22617;43.690;27.956;2022-12-11T07:02:40;97041.84;;;16.04;82.41
18697;BME280;22617;43.690;27.956;2022-12-11T07:07:45;97034.22;;;16.15;82.00
18697;BME280;22617;43.690;27.956;2022-12-11T07:12:51;97047.16;;;16.18;81.94
18697;BME280;22617;43.690;27.956;2022-12-11T07:17:54;97078.84;;;16.31;81.83
18697;BME280;22617;43.690;27.956;2022-12-11T07:22:59;97066.66;;;16.30;82.00
18697;BME280;22617;43.690;27.956;2022-12-11T07:28:02;97073.50;;;16.32;81.96
18697;BME280;22617;43.690;27.956;2022-12-11T07:33:06;97061.78;;;16.38;81.66
18697;BME280;22617;43.690;27.956;2022-12-11T07:38:11;97069.66;;;16.38;81.89
18697;BME280;22617;43.690;27.956;2022-12-11T07:43:14;97069.06;;;16.48;81.46
18697;BME280;22617;43.690;27.956;2022-12-11T07:48:18;97058.25;;;16.53;81.48
18697;BME280;22617;43.690;27.956;2022-12-11T07:53:23;97055.06;;;16.48;82.07
18697;BME280;22617;43.690;27.956;2022-12-11T07:58:26;97079.03;;;16.57;81.68
18697;BME280;22617;43.690;27.956;2022-12-11T08:03:30;97072.03;;;16.58;81.82
18697;BME280;22617;43.690;27.956;2022-12-11T08:08:35;97089.81;;;16.53;82.47
18697;BME280;22617;43.690;27.956;2022-12-11T08:13:39;97071.50;;;16.51;82.63
18697;BME280;22617;43.690;27.956;2022-12-11T08:18:44;97075.06;;;16.50;82.71
18697;BME280;22617;43.690;27.956;2022-12-11T08:23:50;97077.03;;;16.47;83.13
18697;BME280;22617;43.690;27.956;2022-12-11T08:28:54;97082.00;;;16.51;83.54
18697;BME280;22617;43.690;27.956;2022-12-11T08:33:58;97084.91;;;16.63;83.14
18697;BME280;22617;43.690;27.956;2022-12-11T08:39:03;97099.63;;;16.65;83.35
18697;BME280;22617;43.690;27.956;2022-12-11T08:44:10;97098.44;;;16.71;82.66
18697;BME280;22617;43.690;27.956;2022-12-11T08:49:18;97108.59;;;16.77;82.72
18697;BME280;22617;43.690;27.956;2022-12-11T08:54:23;97111.25;;;16.91;82.41
18697;BME280;22617;43.690;27.956;2022-12-11T08:59:26;97080.44;;;16.93;82.20
18697;BME280;22617;43.690;27.956;2022-12-11T09:04:30;97061.19;;;16.92;82.60
18697;BME280;22617;43.690;27.956;2022-12-11T09:09:34;97056.78;;;17.07;82.44
18697;BME280;22617;43.690;27.956;2022-12-11T09:14:38;97029.13;;;17.14;82.06
18697;BME280;22617;43.690;27.956;2022-12-11T09:19:41;97042.66;;;17.22;81.97
18697;BME280;22617;43.690;27.956;2022-12-11T09:24:46;97025.91;;;17.37;81.12
18697;BME280;22617;43.690;27.956;2022-12-11T09:29:50;97011.28;;;17.60;80.92
18697;BME280;22617;43.690;27.956;2022-12-11T09:34:53;97007.19;;;17.83;79.94
18697;BME280;22617;43.690;27.956;2022-12-11T09:39:58;97010.13;;;17.78;79.80
18697;BME280;22617;43.690;27.956;2022-12-11T09:45:09;96989.09;;;17.91;79.48
18697;BME280;22617;43.690;27.956;2022-12-11T09:50:20;96990.72;;;17.79;79.64
18697;BME280;22617;43.690;27.956;2022-12-11T09:55:33;96991.97;;;18.01;79.25
18697;BME280;22617;43.690;27.956;2022-12-11T10:00:43;97000.44;;;18.58;77.63
18697;BME280;22617;43.690;27.956;2022-12-11T10:05:54;97004.25;;;18.79;76.72
18697;BME280;22617;43.690;27.956;2022-12-11T10:16:43;97021.06;;;19.52;74.58
18697;BME280;22617;43.690;27.956;2022-12-11T10:21:48;97021.34;;;19.11;75.03
18697;BME280;22617;43.690;27.956;2022-12-11T10:26:57;97004.56;;;18.75;75.97
18697;BME280;22617;43.690;27.956;2022-12-11T10:32:03;96977.81;;;19.17;74.32
18697;BME280;22617;43.690;27.956;2022-12-11T10:37:09;96991.66;;;18.57;76.48
18697;BME280;22617;43.690;27.956;2022-12-11T10:42:17;96991.34;;;18.62;76.19
18697;BME280;22617;43.690;27.956;2022-12-11T10:47:21;96957.38;;;18.70;75.99
18697;BME280;22617;43.690;27.956;2022-12-11T10:52:26;96949.09;;;19.12;75.17
18697;BME280;22617;43.690;27.956;2022-12-11T10:57:35;96951.47;;;18.79;75.95
18697;BME280;22617;43.690;27.956;2022-12-11T11:02:40;96946.06;;;18.93;75.60
18697;BME280;22617;43.690;27.956;2022-12-11T11:07:48;96953.56;;;18.61;77.10
18697;BME280;22617;43.690;27.956;2022-12-11T11:13:26;96947.66;;;18.58;76.57
18697;BME280;22617;43.690;27.956;2022-12-11T11:32:57;97004.06;;;19.44;73.46
18697;BME280;22617;43.690;27.956;2022-12-11T11:38:11;97012.06;;;18.93;74.92
18697;BME280;22617;43.690;27.956;2022-12-11T11:43:27;96998.94;;;19.04;74.00
18697;BME280;22617;43.690;27.956;2022-12-11T11:48:41;96988.31;;;18.93;74.79
18697;BME280;22617;43.690;27.956;2022-12-11T11:53:49;96998.09;;;19.16;74.39
18697;BME280;22617;43.690;27.956;2022-12-11T11:59:00;96987.34;;;19.07;74.32
18697;BME280;22617;43.690;27.956;2022-12-11T12:04:06;97000.44;;;18.70;74.45
18697;BME280;22617;43.690;27.956;2022-12-11T12:09:20;96999.72;;;18.56;75.80
18697;BME280;22617;43.690;27.956;2022-12-11T12:14:30;96998.06;;;18.41;76.64
18697;BME280;22617;43.690;27.956;2022-12-11T12:20:04;96969.16;;;18.52;75.91
18697;BME280;22617;43.690;27.956;2022-12-11T12:25:15;96968.44;;;18.50;74.78
18697;BME280;22617;43.690;27.956;2022-12-11T12:30:21;96971.47;;;18.44;74.69
18697;BME280;22617;43.690;27.956;2022-12-11T12:35:34;96981.88;;;18.20;75.65
18697;BME280;22617;43.690;27.956;2022-12-11T12:40:48;96998.47;;;18.22;75.53
18697;BME280;22617;43.690;27.956;2022-12-11T12:46:03;96992.97;;;18.12;75.63
18697;BME280;22617;43.690;27.956;2022-12-11T12:51:12;96978.50;;;18.18;75.22
18697;BME280;22617;43.690;27.956;2022-12-11T12:56:16;96968.44;;;17.98;75.77
18697;BME280;22617;43.690;27.956;2022-12-11T13:01:23;96967.22;;;18.03;75.85
18697;BME280;22617;43.690;27.956;2022-12-11T13:06:33;96950.41;;;18.04;76.33
18697;BME280;22617;43.690;27.956;2022-12-11T13:11:36;96952.88;;;18.07;77.30
18697;BME280;22617;43.690;27.956;2022-12-11T13:16:43;96937.69;;;18.11;76.76
18697;BME280;22617;43.690;27.956;2022-12-11T13:21:57;96942.50;;;18.04;76.05
18697;BME280;22617;43.690;27.956;2022-12-11T13:27:20;96964.03;;;18.11;75.65
18697;BME280;22617;43.690;27.956;2022-12-11T13:32:29;96954.53;;;17.96;75.39
18697;BME280;22617;43.690;27.956;2022-12-11T13:37:37;96962.34;;;18.10;74.70
18697;BME280;22617;43.690;27.956;2022-12-11T13:42:47;96973.00;;;18.08;75.51
18697;BME280;22617;43.690;27.956;2022-12-11T13:47:51;96975.50;;;17.97;75.29
18697;BME280;22617;43.690;27.956;2022-12-11T13:52:58;96965.97;;;17.82;76.13
18697;BME280;22617;43.690;27.956;2022-12-11T13:58:01;96970.50;;;17.80;75.94
18697;BME280;22617;43.690;27.956;2022-12-11T14:03:05;96961.81;;;17.51;76.93
18697;BME280;22617;43.690;27.956;2022-12-11T14:08:10;96960.38;;;17.19;79.40
18697;BME280;22617;43.690;27.956;2022-12-11T14:13:19;96966.34;;;16.94;80.69
18697;BME280;22617;43.690;27.956;2022-12-11T14:18:27;96951.69;;;16.62;81.29
18697;BME280;22617;43.690;27.956;2022-12-11T14:23:34;96956.22;;;16.74;80.02
18697;BME280;22617;43.690;27.956;2022-12-11T14:28:41;96971.25;;;16.72;79.83
18697;BME280;22617;43.690;27.956;2022-12-11T14:33:47;96983.34;;;16.74;79.63
18697;BME280;22617;43.690;27.956;2022-12-11T14:38:56;96972.94;;;16.73;79.79
18697;BME280;22617;43.690;27.956;2022-12-11T14:44:03;96987.53;;;16.48;80.07
18697;BME280;22617;43.690;27.956;2022-12-11T14:49:16;97010.72;;;16.12;82.29
18697;BME280;22617;43.690;27.956;2022-12-11T14:54:27;97027.19;;;16.00;83.75
18697;BME280;22617;43.690;27.956;2022-12-11T14:59:39;97028.97;;;15.99;83.69
18697;BME280;22617;43.690;27.956;2022-12-11T15:04:58;97025.38;;;15.86;84.28
18697;BME280;22617;43.690;27.956;2022-12-11T15:10:06;97020.13;;;15.70;84.84
18697;BME280;22617;43.690;27.956;2022-12-11T15:15:14;97020.97;;;15.55;85.87
18697;BME280;22617;43.690;27.956;2022-12-11T15:20:23;97013.22;;;15.54;86.03
18697;BME280;22617;43.690;27.956;2022-12-11T15:25:29;97007.97;;;15.54;86.26
18697;BME280;22617;43.690;27.956;2022-12-11T15:30:34;97021.47;;;15.46;85.92
18697;BME280;22617;43.690;27.956;2022-12-11T15:35:38;97020.78;;;15.27;86.51
18697;BME280;22617;43.690;27.956;2022-12-11T15:40:44;97016.03;;;15.18;87.00
18697;BME280;22617;43.690;27.956;2022-12-11T15:45:48;97016.34;;;15.12;86.96
18697;BME280;22617;43.690;27.956;2022-12-11T15:50:52;97006.44;;;15.17;87.06
18697;BME280;22617;43.690;27.956;2022-12-11T15:55:57;97015.44;;;15.13;86.89
18697;BME280;22617;43.690;27.956;2022-12-11T16:01:01;97011.81;;;15.15;87.39
18697;BME280;22617;43.690;27.956;2022-12-11T16:06:10;97011.41;;;15.39;86.49
18697;BME280;22617;43.690;27.956;2022-12-11T16:11:16;97011.59;;;15.51;86.26
18697;BME280;22617;43.690;27.956;2022-12-11T16:16:19;97019.50;;;15.50;85.99
18697;BME280;22617;43.690;27.956;2022-12-11T16:21:24;97016.31;;;15.60;85.91
18697;BME280;22617;43.690;27.956;2022-12-11T16:26:29;97011.59;;;15.51;85.21
18697;BME280;22617;43.690;27.956;2022-12-11T16:31:33;97019.09;;;15.42;85.35
18697;BME280;22617;43.690;27.956;2022-12-11T16:36:36;97010.09;;;15.30;85.25
18697;BME280;22617;43.690;27.956;2022-12-11T16:41:41;97008.50;;;15.27;85.19
18697;BME280;22617;43.690;27.956;2022-12-11T16:46:45;97006.19;;;15.21;85.02
18697;BME280;22617;43.690;27.956;2022-12-11T16:51:49;97007.38;;;15.16;84.88
18697;BME280;22617;43.690;27.956;2022-12-11T16:56:53;97025.84;;;15.14;84.74
18697;BME280;22617;43.690;27.956;2022-12-11T17:01:57;97025.41;;;15.06;84.32
18697;BME280;22617;43.690;27.956;2022-12-11T17:07:01;97034.97;;;15.07;84.21
18697;BME280;22617;43.690;27.956;2022-12-11T17:12:07;97043.94;;;15.03;83.65
18697;BME280;22617;43.690;27.956;2022-12-11T17:17:11;97044.59;;;15.07;83.02
18697;BME280;22617;43.690;27.956;2022-12-11T17:22:14;97049.38;;;15.16;82.31
18697;BME280;22617;43.690;27.956;2022-12-11T17:27:19;97055.88;;;15.09;82.20
18697;BME280;22617;43.690;27.956;2022-12-11T17:32:26;97052.75;;;15.18;82.05
18697;BME280;22617;43.690;27.956;2022-12-11T17:37:30;97056.88;;;15.06;82.36
18697;BME280;22617;43.690;27.956;2022-12-11T17:42:35;97068.09;;;14.93;82.75
18697;BME280;22617;43.690;27.956;2022-12-11T17:47:39;97077.75;;;14.92;83.01
18697;BME280;22617;43.690;27.956;2022-12-11T17:52:43;97063.34;;;14.83;83.72
18697;BME280;22617;43.690;27.956;2022-12-11T17:57:48;97075.53;;;14.84;83.56
18697;BME280;22617;43.690;27.956;2022-12-11T18:02:52;97077.78;;;14.75;84.19
18697;BME280;22617;43.690;27.956;2022-12-11T18:07:56;97094.81;;;14.49;83.08
18697;BME280;22617;43.690;27.956;2022-12-11T18:13:01;97100.19;;;14.29;83.37
18697;BME280;22617;43.690;27.956;2022-12-11T18:18:05;97091.16;;;14.17;83.77
18697;BME280;22617;43.690;27.956;2022-12-11T18:23:09;97106.47;;;14.08;85.17
18697;BME280;22617;43.690;27.956;2022-12-11T18:28:14;97103.19;;;13.85;86.28
18697;BME280;22617;43.690;27.956;2022-12-11T18:33:18;97112.03;;;13.83;86.48
18697;BME280;22617;43.690;27.956;2022-12-11T18:38:22;97119.06;;;13.64;86.75
18697;BME280;22617;43.690;27.956;2022-12-11T18:43:27;97128.13;;;13.57;87.97
18697;BME280;22617;43.690;27.956;2022-12-11T18:48:31;97149.19;;;13.53;88.34
18697;BME280;22617;43.690;27.956;2022-12-11T18:53:37;97154.84;;;12.85;86.82
18697;BME280;22617;43.690;27.956;2022-12-11T18:58:43;97168.41;;;12.73;84.55
18697;BME280;22617;43.690;27.956;2022-12-11T19:03:47;97165.56;;;12.57;84.44
18697;BME280;22617;43.690;27.956;2022-12-11T19:08:52;97184.19;;;12.50;84.30
18697;BME280;22617;43.690;27.956;2022-12-11T19:13:57;97191.19;;;12.49;84.28
18697;BME280;22617;43.690;27.956;2022-12-11T19:19:03;97183.53;;;12.23;85.22
18697;BME280;22617;43.690;27.956;2022-12-11T19:24:11;97188.81;;;12.21;86.41
18697;BME280;22617;43.690;27.956;2022-12-11T19:29:20;97200.31;;;11.94;86.64
18697;BME280;22617;43.690;27.956;2022-12-11T19:34:24;97200.41;;;11.69;87.17
18697;BME280;22617;43.690;27.956;2022-12-11T19:39:28;97210.97;;;11.42;87.90
18697;BME280;22617;43.690;27.956;2022-12-11T19:44:34;97222.13;;;11.22;87.48
18697;BME280;22617;43.690;27.956;2022-12-11T19:49:37;97236.41;;;10.85;86.78
18697;BME280;22617;43.690;27.956;2022-12-11T19:54:41;97247.38;;;10.42;87.08
18697;BME280;22617;43.690;27.956;2022-12-11T19:59:46;97255.31;;;10.10;88.10
18697;BME280;22617;43.690;27.956;2022-12-11T20:04:57;97268.16;;;9.87;88.00
18697;BME280;22617;43.690;27.956;2022-12-11T20:10:01;97284.06;;;9.45;87.73
18697;BME280;22617;43.690;27.956;2022-12-11T20:15:07;97296.31;;;9.08;86.18
18697;BME280;22617;43.690;27.956;2022-12-11T20:20:13;97300.41;;;8.83;86.39
18697;BME280;22617;43.690;27.956;2022-12-11T20:25:19;97316.31;;;8.70;86.15
18697;BME280;22617;43.690;27.956;2022-12-11T20:30:23;97324.75;;;8.43;85.51
18697;BME280;22617;43.690;27.956;2022-12-11T20:35:27;97321.41;;;8.38;85.89
18697;BME280;22617;43.690;27.956;2022-12-11T20:40:32;97322.16;;;8.43;86.27
18697;BME280;22617;43.690;27.956;2022-12-11T20:45:37;97345.75;;;8.31;86.23
18697;BME280;22617;43.690;27.956;2022-12-11T20:50:40;97340.00;;;8.15;86.10
18697;BME280;22617;43.690;27.956;2022-12-11T20:55:44;97321.25;;;8.03;87.21
18697;BME280;22617;43.690;27.956;2022-12-11T21:00:49;97312.19;;;8.22;86.66
18697;BME280;22617;43.690;27.956;2022-12-11T21:05:52;97316.00;;;8.06;86.57
18697;BME280;22617;43.690;27.956;2022-12-11T21:10:56;97308.09;;;8.12;87.21
18697;BME280;22617;43.690;27.956;2022-12-11T21:16:04;97314.25;;;8.08;87.27
18697;BME280;22617;43.690;27.956;2022-12-11T21:21:09;97319.53;;;8.02;87.27
18697;BME280;22617;43.690;27.956;2022-12-11T21:26:13;97348.06;;;8.03;87.83
18697;BME280;22617;43.690;27.956;2022-12-11T21:31:18;97368.03;;;8.00;88.05
18697;BME280;22617;43.690;27.956;2022-12-11T21:36:22;97373.50;;;7.86;88.45
18697;BME280;22617;43.690;27.956;2022-12-11T21:41:27;97307.72;;;7.88;88.63
18697;BME280;22617;43.690;27.956;2022-12-11T21:46:32;97300.06;;;7.82;88.90
18697;BME280;22617;43.690;27.956;2022-12-11T21:51:37;97301.75;;;7.85;89.33
18697;BME280;22617;43.690;27.956;2022-12-11T21:56:48;97312.16;;;7.83;89.46
18697;BME280;22617;43.690;27.956;2022-12-11T22:01:53;97325.13;;;7.83;89.90
18697;BME280;22617;43.690;27.956;2022-12-11T22:06:57;97331.25;;;7.81;90.18
18697;BME280;22617;43.690;27.956;2022-12-11T22:12:00;97340.94;;;7.71;89.93
18697;BME280;22617;43.690;27.956;2022-12-11T22:17:05;97333.09;;;7.73;90.62
18697;BME280;22617;43.690;27.956;2022-12-11T22:22:09;97344.69;;;7.55;90.64
18697;BME280;22617;43.690;27.956;2022-12-11T22:27:13;97350.75;;;7.54;90.45
18697;BME280;22617;43.690;27.956;2022-12-11T22:32:25;97364.66;;;7.52;90.11
18697;BME280;22617;43.690;27.956;2022-12-11T22:37:29;97388.09;;;7.44;90.31
18697;BME280;22617;43.690;27.956;2022-12-11T22:42:33;97371.56;;;7.50;90.51
18697;BME280;22617;43.690;27.956;2022-12-11T22:47:38;97385.31;;;7.55;90.21
18697;BME280;22617;43.690;27.956;2022-12-11T22:52:41;97398.69;;;7.32;90.14
18697;BME280;22617;43.690;27.956;2022-12-11T22:57:46;97409.91;;;7.31;90.58
18697;BME280;22617;43.690;27.956;2022-12-11T23:02:51;97409.28;;;7.17;89.96
18697;BME280;22617;43.690;27.956;2022-12-11T23:07:54;97419.94;;;6.98;88.49
18697;BME280;22617;43.690;27.956;2022-12-11T23:12:58;97409.75;;;6.89;87.89
18697;BME280;22617;43.690;27.956;2022-12-11T23:18:04;97407.22;;;6.83;88.23
18697;BME280;22617;43.690;27.956;2022-12-11T23:23:07;97391.06;;;6.69;88.13
18697;BME280;22617;43.690;27.956;2022-12-11T23:28:11;97416.06;;;6.69;88.30
18697;BME280;22617;43.690;27.956;2022-12-11T23:33:16;97422.84;;;6.79;88.24
18697;BME280;22617;43.690;27.956;2022-12-11T23:38:20;97417.94;;;6.59;88.24
18697;BME280;22617;43.690;27.956;2022-12-11T23:43:23;97447.13;;;6.70;88.36
18697;BME280;22617;43.690;27.956;2022-12-11T23:48:28;97444.53;;;6.70;87.31
18697;BME280;22617;43.690;27.956;2022-12-11T23:53:32;97442.91;;;6.63;86.77
18697;BME280;22617;43.690;27.956;2022-12-11T23:58:36;97448.00;;;6.68;86.89
